Time;durP1;ratioP1;P1;durP2;ratioP2;P2;SDS_P1;SDS_P2;PMS_P1;PMS_P2;Temp;Humidity;BMP_temperature;BMP_pressure;BME280_temperature;BME280_humidity;BME280_pressure;Samples;Min_cycle;Max_cycle;Signal;HPM_P1;HPM_P2
2021/09/19 00:00:58;;;;;;;16.40;11.30;;;;;;;13.66;84.97;101706.16;5052139;28;20025;-68
2021/09/19 00:03:24;;;;;;;15.80;11.13;;;;;;;13.65;84.84;101701.78;5051085;28;20117;-64
2021/09/19 00:05:49;;;;;;;14.65;10.95;;;;;;;13.67;84.85;101702.56;5050571;28;20088;-65
2021/09/19 00:08:15;;;;;;;14.60;11.05;;;;;;;13.63;85.10;101696.50;5050930;28;20025;-67
2021/09/19 00:10:41;;;;;;;16.77;10.35;;;;;;;13.59;84.68;101698.47;5050774;28;20025;-60
2021/09/19 00:13:07;;;;;;;14.20;10.52;;;;;;;13.54;85.04;101696.94;5050379;28;20170;-59
2021/09/19 00:15:32;;;;;;;14.45;10.80;;;;;;;13.50;85.43;101708.63;5050330;28;20443;-60
2021/09/19 00:17:58;;;;;;;16.95;10.85;;;;;;;13.48;85.34;101694.53;5050251;28;20480;-60
2021/09/19 00:20:24;;;;;;;14.20;10.68;;;;;;;13.46;85.29;101701.72;5051265;28;20036;-64
2021/09/19 00:22:49;;;;;;;16.52;11.05;;;;;;;13.44;85.41;101705.31;5050858;28;20060;-70
2021/09/19 00:25:14;;;;;;;14.90;10.75;;;;;;;13.41;85.65;101699.25;5049792;28;20032;-59
2021/09/19 00:27:41;;;;;;;15.63;11.20;;;;;;;13.40;85.34;101693.09;5050005;28;20038;-60
2021/09/19 00:30:07;;;;;;;15.43;10.57;;;;;;;13.38;85.13;101689.63;5051157;28;20056;-61
2021/09/19 00:32:33;;;;;;;15.52;10.75;;;;;;;13.36;85.39;101690.56;5050571;28;20025;-60
2021/09/19 00:34:58;;;;;;;16.00;11.00;;;;;;;13.32;85.34;101692.50;5049466;28;20044;-61
2021/09/19 00:37:23;;;;;;;14.43;10.93;;;;;;;13.31;85.24;101684.59;5049833;28;20132;-72
2021/09/19 00:39:49;;;;;;;14.40;11.07;;;;;;;13.26;85.69;101676.78;5050639;28;20025;-59
2021/09/19 00:42:14;;;;;;;15.80;11.13;;;;;;;13.20;85.82;101675.28;5050062;28;20104;-59
2021/09/19 00:44:40;;;;;;;13.77;10.90;;;;;;;13.19;85.84;101681.50;5050760;28;20112;-67
2021/09/19 00:47:05;;;;;;;18.27;11.82;;;;;;;13.16;86.18;101683.44;5050217;28;20044;-66
2021/09/19 00:49:30;;;;;;;15.20;11.27;;;;;;;13.15;86.23;101687.91;5050331;28;20385;-64
2021/09/19 00:51:56;;;;;;;16.42;11.57;;;;;;;13.12;86.43;101685.38;5049853;28;20104;-66
2021/09/19 00:54:22;;;;;;;13.95;11.23;;;;;;;13.09;86.45;101688.16;5049035;28;20422;-73
2021/09/19 00:56:53;;;;;;;15.45;11.35;;;;;;;13.05;86.62;101684.75;5049025;28;20036;-58
2021/09/19 00:59:20;;;;;;;17.10;11.25;;;;;;;13.02;86.65;101681.34;5049156;28;20056;-59
2021/09/19 01:01:49;;;;;;;15.68;10.85;;;;;;;12.99;86.34;101686.81;5050299;28;20037;-59
2021/09/19 01:04:15;;;;;;;14.77;11.45;;;;;;;12.93;87.16;101680.81;5049538;28;20027;-60
2021/09/19 01:06:40;;;;;;;16.63;11.38;;;;;;;12.92;87.12;101684.41;5049742;28;20029;-65
2021/09/19 01:09:06;;;;;;;14.27;11.18;;;;;;;12.89;87.11;101681.00;5050058;28;20147;-80
2021/09/19 01:11:31;;;;;;;14.38;10.55;;;;;;;12.85;87.38;101682.06;5049834;28;20036;-60
2021/09/19 01:13:59;;;;;;;13.48;10.90;;;;;;;12.84;87.41;101670.56;5049956;28;20052;-59
2021/09/19 01:16:26;;;;;;;14.30;10.55;;;;;;;12.83;87.32;101671.50;5030393;28;20125;-60
2021/09/19 01:18:52;;;;;;;14.25;10.43;;;;;;;12.80;87.79;101674.28;5031470;28;20101;-68
2021/09/19 01:21:17;;;;;;;14.02;10.75;;;;;;;12.78;87.57;101670.81;5049428;28;20418;-60
2021/09/19 01:24:02;;;;;;;14.35;10.63;;;;;;;12.75;87.99;101668.31;5048842;28;20049;-59
2021/09/19 01:26:28;;;;;;;16.50;10.48;;;;;;;12.74;87.92;101667.41;5048684;28;20029;-60
2021/09/19 01:28:53;;;;;;;14.00;10.15;;;;;;;12.71;88.06;101664.91;5049084;28;20101;-59
2021/09/19 01:31:19;;;;;;;14.65;10.30;;;;;;;12.69;87.96;101668.53;5048525;28;20389;-61
2021/09/19 01:33:45;;;;;;;15.57;10.48;;;;;;;12.69;88.06;101664.09;5049350;28;20131;-60
2021/09/19 01:36:12;;;;;;;13.27;10.32;;;;;;;12.68;88.52;101659.69;5048180;28;20052;-68
2021/09/19 01:38:37;;;;;;;14.45;10.57;;;;;;;12.70;88.23;101651.66;5048428;28;20150;-60
2021/09/19 01:41:03;;;;;;;15.07;10.43;;;;;;;12.67;88.02;101649.97;5049010;28;20111;-60
2021/09/19 01:43:28;;;;;;;13.82;10.68;;;;;;;12.64;88.22;101642.16;5049111;28;20465;-60
2021/09/19 01:45:53;;;;;;;13.90;10.82;;;;;;;12.58;88.29;101643.28;5048201;28;20037;-63
2021/09/19 01:48:19;;;;;;;13.88;10.93;;;;;;;12.53;88.80;101645.25;5049004;28;20330;-59
2021/09/19 01:50:44;;;;;;;14.93;10.82;;;;;;;12.53;88.89;101637.28;5048492;28;20078;-67
2021/09/19 01:53:10;;;;;;;13.43;9.95;;;;;;;12.54;88.83;101644.28;5048474;28;20029;-60
2021/09/19 01:55:35;;;;;;;13.45;10.77;;;;;;;12.51;88.81;101643.59;5048564;28;20033;-63
2021/09/19 01:58:00;;;;;;;15.32;11.30;;;;;;;12.48;89.28;101643.69;5048364;28;20124;-59
2021/09/19 02:00:26;;;;;;;13.50;11.02;;;;;;;12.48;89.47;101644.56;5048528;28;20372;-60
2021/09/19 02:02:52;;;;;;;14.25;11.43;;;;;;;12.48;89.48;101647.22;5048339;28;20399;-68
2021/09/19 02:05:18;;;;;;;15.55;10.60;;;;;;;12.51;89.29;101654.22;5048751;28;20048;-60
2021/09/19 02:07:43;;;;;;;13.70;10.55;;;;;;;12.53;89.02;101647.03;5048236;28;20025;-59
2021/09/19 02:10:13;;;;;;;13.30;9.95;;;;;;;12.50;88.79;101650.66;5047868;28;20025;-59
2021/09/19 02:12:41;;;;;;;14.88;11.23;;;;;;;12.49;89.16;101645.44;5048003;28;20065;-61
2021/09/19 02:15:08;;;;;;;13.15;10.27;;;;;;;12.49;89.04;101638.31;5048472;28;20108;-60
2021/09/19 02:17:34;;;;;;;13.73;10.93;;;;;;;12.45;89.33;101642.03;5048044;28;20036;-59
2021/09/19 02:20:00;;;;;;;13.57;10.57;;;;;;;12.43;89.08;101642.09;5048282;28;20356;-63
2021/09/19 02:22:26;;;;;;;13.15;11.00;;;;;;;12.39;88.98;101632.53;5048283;28;20076;-59
2021/09/19 02:24:51;;;;;;;13.63;11.25;;;;;;;12.36;89.27;101624.66;5047901;28;20095;-59
2021/09/19 02:27:16;;;;;;;15.45;11.25;;;;;;;12.31;89.64;101623.13;5048195;28;20385;-59
2021/09/19 02:29:42;;;;;;;17.02;10.77;;;;;;;12.31;89.27;101631.09;5048300;28;20410;-60
2021/09/19 02:32:08;;;;;;;15.27;11.35;;;;;;;12.29;89.53;101624.03;5048285;28;20025;-80
2021/09/19 02:34:33;;;;;;;15.57;11.60;;;;;;;12.26;89.51;101631.25;5048356;28;20028;-60
2021/09/19 02:36:59;;;;;;;15.70;12.05;;;;;;;12.27;89.78;101625.88;5048361;28;20186;-62
2021/09/19 02:39:24;;;;;;;15.18;11.25;;;;;;;12.25;89.59;101629.53;5046963;28;20499;-59
2021/09/19 02:41:50;;;;;;;18.95;11.85;;;;;;;12.24;89.82;101619.84;5047935;28;20040;-60
2021/09/19 02:44:15;;;;;;;14.43;11.18;;;;;;;12.23;89.97;101624.28;5047919;28;20028;-61
2021/09/19 02:46:40;;;;;;;14.07;11.32;;;;;;;12.24;90.15;101622.50;5048045;28;20405;-61
2021/09/19 02:49:06;;;;;;;15.50;11.90;;;;;;;12.22;89.88;101627.84;5047332;28;20116;-67
2021/09/19 02:51:31;;;;;;;15.70;11.32;;;;;;;12.19;90.13;101627.97;5047928;28;20250;-73
2021/09/19 02:53:56;;;;;;;15.20;11.55;;;;;;;12.18;90.03;101623.59;5048272;28;20354;-63
2021/09/19 02:56:22;;;;;;;13.60;11.25;;;;;;;12.18;90.25;101623.59;5046828;28;20033;-67
2021/09/19 02:58:47;;;;;;;18.25;13.00;;;;;;;12.16;90.22;101624.56;5049857;28;20425;-60
2021/09/19 03:01:12;;;;;;;16.33;11.60;;;;;;;12.16;90.35;101616.59;5051093;28;20139;-72
2021/09/19 03:03:38;;;;;;;16.08;12.07;;;;;;;12.15;90.56;101618.41;5051069;28;20025;-69
2021/09/19 03:06:03;;;;;;;16.38;12.30;;;;;;;12.15;90.75;101613.09;5050983;28;20100;-70
2021/09/19 03:08:28;;;;;;;15.48;12.00;;;;;;;12.15;90.77;101620.19;5051437;28;20025;-76
2021/09/19 03:10:54;;;;;;;19.02;12.63;;;;;;;12.13;90.63;101617.59;5050613;28;20021;-78
2021/09/19 03:13:19;;;;;;;17.42;13.02;;;;;;;12.12;90.81;101621.16;5051215;28;20563;-60
2021/09/19 03:15:44;;;;;;;17.08;12.80;;;;;;;12.09;90.84;101606.22;5050915;28;20075;-60
2021/09/19 03:18:10;;;;;;;15.95;11.73;;;;;;;12.10;90.88;101615.06;5050633;28;20039;-61
2021/09/19 03:20:35;;;;;;;15.02;11.77;;;;;;;12.06;90.51;101606.34;5050732;28;20063;-64
2021/09/19 03:23:00;;;;;;;16.58;12.10;;;;;;;12.05;90.65;101612.59;5049246;28;20090;-60
2021/09/19 03:25:26;;;;;;;18.77;12.57;;;;;;;12.03;91.00;101619.72;5050581;28;20033;-59
2021/09/19 03:27:51;;;;;;;16.15;12.38;;;;;;;12.02;90.76;101614.50;5050340;28;20106;-81
2021/09/19 03:30:17;;;;;;;17.55;12.40;;;;;;;12.01;90.87;101615.41;5050348;28;20484;-61
2021/09/19 03:32:43;;;;;;;17.55;13.95;;;;;;;12.00;91.17;101608.41;5050522;28;20044;-61
2021/09/19 03:35:10;;;;;;;17.70;13.93;;;;;;;11.98;91.07;101612.88;5050479;28;20047;-60
2021/09/19 03:37:35;;;;;;;20.02;13.77;;;;;;;11.94;91.45;101609.44;5050262;28;20052;-60
2021/09/19 03:40:00;;;;;;;21.05;13.88;;;;;;;11.90;91.35;101606.03;5050204;28;20434;-59
2021/09/19 03:42:26;;;;;;;17.98;13.55;;;;;;;11.89;91.60;101611.41;5049619;28;20048;-60
2021/09/19 03:44:51;;;;;;;21.08;14.82;;;;;;;11.85;91.87;101612.44;5050499;28;20018;-64
2021/09/19 03:47:17;;;;;;;19.02;13.98;;;;;;;11.83;91.73;101607.22;5050383;28;20021;-67
2021/09/19 03:49:43;;;;;;;19.55;14.35;;;;;;;11.81;91.74;101606.38;5049748;28;20047;-60
2021/09/19 03:52:08;;;;;;;18.88;14.27;;;;;;;11.79;91.65;101601.16;5045601;28;20033;-71
2021/09/19 03:54:34;;;;;;;18.42;13.88;;;;;;;11.78;91.65;101611.81;5050064;28;20138;-71
2021/09/19 03:57:01;;;;;;;19.30;14.50;;;;;;;11.75;92.07;101593.34;5049914;28;20106;-60
2021/09/19 03:59:26;;;;;;;20.63;14.60;;;;;;;11.75;92.10;101598.66;5050079;28;20033;-72
2021/09/19 04:01:51;;;;;;;19.77;13.98;;;;;;;11.78;91.82;101595.91;5049505;28;20041;-66
2021/09/19 04:04:17;;;;;;;19.35;14.25;;;;;;;11.75;91.77;101601.31;5049517;28;20029;-60
2021/09/19 04:06:42;;;;;;;20.15;14.68;;;;;;;11.74;92.07;101605.75;5050228;28;20051;-60
2021/09/19 04:09:07;;;;;;;20.65;15.02;;;;;;;11.73;92.23;101603.19;5049528;28;20052;-75
2021/09/19 04:11:33;;;;;;;19.20;14.00;;;;;;;11.73;92.30;101600.53;5049387;28;20033;-59
2021/09/19 04:13:58;;;;;;;19.58;14.02;;;;;;;11.70;92.13;101597.97;5049074;28;20040;-61
2021/09/19 04:16:23;;;;;;;19.17;14.57;;;;;;;11.68;92.17;101589.22;5050160;28;20033;-61
2021/09/19 04:18:48;;;;;;;17.77;14.10;;;;;;;11.65;92.11;101590.19;5049719;28;20365;-61
2021/09/19 04:21:15;;;;;;;18.55;13.82;;;;;;;11.63;92.03;101594.69;5049401;28;20021;-61
2021/09/19 04:23:40;;;;;;;20.85;15.02;;;;;;;11.59;92.54;101585.13;5049115;28;20136;-59
2021/09/19 04:26:05;;;;;;;22.90;14.60;;;;;;;11.61;92.46;101591.22;5049681;28;20490;-61
2021/09/19 04:28:31;;;;;;;20.80;15.80;;;;;;;11.61;92.60;101588.56;5049109;28;20033;-64
2021/09/19 04:30:56;;;;;;;22.13;15.82;;;;;;;11.60;92.69;101593.00;5049310;28;20535;-61
2021/09/19 04:33:21;;;;;;;19.88;14.90;;;;;;;11.58;92.86;101584.22;5049356;28;20037;-64
2021/09/19 04:35:47;;;;;;;23.67;16.05;;;;;;;11.57;93.14;101586.94;5049667;28;20158;-59
2021/09/19 04:38:13;;;;;;;21.63;15.68;;;;;;;11.59;93.24;101587.78;5049606;28;20105;-68
2021/09/19 04:40:38;;;;;;;22.20;16.50;;;;;;;11.57;93.14;101589.59;5049360;28;20051;-60
2021/09/19 04:43:03;;;;;;;24.83;16.52;;;;;;;11.56;93.58;101579.91;5048183;28;20025;-64
2021/09/19 04:45:29;;;;;;;26.05;17.08;;;;;;;11.59;93.68;101585.13;5049453;28;20021;-60
2021/09/19 04:47:54;;;;;;;23.30;16.33;;;;;;;11.61;93.54;101589.44;5049249;28;20115;-60
2021/09/19 04:50:19;;;;;;;24.85;16.08;;;;;;;11.61;93.34;101597.41;5049229;28;20033;-60
2021/09/19 04:52:45;;;;;;;23.38;15.90;;;;;;;11.60;93.34;101589.50;5048546;28;20112;-60
2021/09/19 04:55:10;;;;;;;23.65;16.65;;;;;;;11.58;93.20;101597.50;5049078;28;20178;-61
2021/09/19 04:57:36;;;;;;;20.63;14.65;;;;;;;11.56;92.94;101586.09;5049019;28;20209;-60
2021/09/19 05:00:03;;;;;;;22.02;15.30;;;;;;;11.55;93.04;101581.69;5048662;28;20025;-59
2021/09/19 05:02:28;;;;;;;22.17;16.23;;;;;;;11.54;93.24;101582.63;5048682;28;20118;-65
2021/09/19 05:04:53;;;;;;;22.45;16.27;;;;;;;11.52;93.50;101591.56;5048612;28;20040;-67
2021/09/19 05:07:19;;;;;;;23.50;16.95;;;;;;;11.52;93.48;101592.44;5048435;28;20378;-64
2021/09/19 05:09:44;;;;;;;23.45;16.85;;;;;;;11.52;93.67;101583.59;5049176;28;20163;-65
2021/09/19 05:12:09;;;;;;;23.55;16.27;;;;;;;11.48;93.48;101582.84;5048977;28;20025;-61
2021/09/19 05:14:34;;;;;;;23.05;16.50;;;;;;;11.47;93.47;101589.06;5047709;28;20517;-59
2021/09/19 05:17:00;;;;;;;24.10;17.20;;;;;;;11.48;93.85;101589.03;5048440;28;20032;-62
2021/09/19 05:19:25;;;;;;;23.00;16.20;;;;;;;11.51;93.76;101587.16;5048332;28;20116;-59
2021/09/19 05:21:50;;;;;;;24.73;16.92;;;;;;;11.51;93.54;101593.34;5047866;28;20422;-64
2021/09/19 05:24:16;;;;;;;25.60;16.77;;;;;;;11.52;93.44;101595.09;5048205;28;20147;-60
2021/09/19 05:26:41;;;;;;;22.38;16.38;;;;;;;11.52;93.61;101592.44;5048287;28;20029;-60
2021/09/19 05:29:06;;;;;;;24.73;16.60;;;;;;;11.52;93.70;101588.91;5048085;28;20025;-60
2021/09/19 05:31:32;;;;;;;24.50;17.17;;;;;;;11.54;93.69;101592.38;5047563;28;20334;-60
2021/09/19 05:33:58;;;;;;;24.65;16.88;;;;;;;11.55;94.02;101596.78;5047803;28;20037;-59
2021/09/19 05:36:23;;;;;;;24.80;16.33;;;;;;;11.56;93.74;101594.06;5044581;28;20338;-60
2021/09/19 05:38:49;;;;;;;24.77;15.13;;;;;;;11.54;93.52;101592.38;5044789;28;20437;-66
2021/09/19 05:41:14;;;;;;;25.48;16.73;;;;;;;11.54;93.36;101593.22;5045252;28;20055;-64
2021/09/19 05:43:39;;;;;;;24.80;16.77;;;;;;;11.53;93.54;101588.00;5041622;28;20029;-70
2021/09/19 05:46:05;;;;;;;23.73;16.30;;;;;;;11.54;93.69;101595.88;5048394;28;20021;-77
2021/09/19 05:48:30;;;;;;;20.95;15.77;;;;;;;11.56;93.62;101590.50;5048674;28;20060;-72
2021/09/19 05:50:56;;;;;;;22.85;16.58;;;;;;;11.61;93.27;101601.81;5049546;28;20155;-80
2021/09/19 05:53:21;;;;;;;23.65;15.75;;;;;;;11.61;93.38;101592.09;5049611;28;20029;-80
2021/09/19 05:55:47;;;;;;;22.60;15.95;;;;;;;11.68;93.47;101597.19;5044276;28;20021;-78
2021/09/19 05:58:12;;;;;;;20.15;14.25;;;;;;;11.71;93.18;101595.25;5052478;28;20068;-76
2021/09/19 06:00:39;;;;;;;20.58;15.10;;;;;;;11.75;93.19;101604.84;5046380;28;20029;-77
2021/09/19 06:03:04;;;;;;;21.40;15.45;;;;;;;11.83;93.28;101607.22;5049215;28;20071;-81
2021/09/19 06:05:30;;;;;;;22.10;16.45;;;;;;;11.88;92.90;101591.97;5048070;28;20033;-70
2021/09/19 06:07:55;;;;;;;22.33;15.73;;;;;;;11.88;92.66;101602.59;5049143;28;20041;-69
2021/09/19 06:10:20;;;;;;;22.50;15.80;;;;;;;11.91;92.45;101610.44;5049112;28;20021;-74
2021/09/19 06:12:46;;;;;;;21.40;14.90;;;;;;;12.00;92.86;101611.03;5038157;28;20422;-77
2021/09/19 06:15:12;;;;;;;21.05;15.32;;;;;;;12.03;92.48;101611.78;5048321;28;20017;-65
2021/09/19 06:17:38;;;;;;;21.30;15.95;;;;;;;12.08;92.39;101614.25;5033982;28;20033;-74
2021/09/19 06:20:04;;;;;;;21.23;15.00;;;;;;;12.13;92.01;101614.94;5047715;28;20029;-75
2021/09/19 06:22:29;;;;;;;18.48;14.32;;;;;;;12.16;91.80;101616.59;5029015;28;20037;-77
2021/09/19 06:24:55;;;;;;;18.65;13.60;;;;;;;12.23;91.64;101618.97;5036052;28;20052;-71
2021/09/19 06:27:20;;;;;;;21.05;14.80;;;;;;;12.26;91.41;101618.88;5049122;28;20083;-80
2021/09/19 06:29:46;;;;;;;20.92;15.07;;;;;;;12.24;91.44;101614.53;5049350;28;20325;-73
2021/09/19 06:32:11;;;;;;;20.20;15.85;;;;;;;12.26;91.33;101616.22;5032166;28;20434;-76
2021/09/19 06:34:39;;;;;;;22.75;15.02;;;;;;;12.29;91.49;101605.44;5031483;28;20022;-70
2021/09/19 06:37:05;;;;;;;19.13;13.75;;;;;;;12.39;91.89;101607.72;5052626;28;20463;-65
2021/09/19 06:39:30;;;;;;;18.92;14.60;;;;;;;12.43;91.16;101609.34;5044065;28;20094;-70
2021/09/19 06:41:56;;;;;;;19.05;13.80;;;;;;;12.50;91.26;101602.00;5048822;28;20017;-79
2021/09/19 06:44:22;;;;;;;17.58;13.30;;;;;;;12.62;90.83;101615.66;5050593;28;20441;-64
2021/09/19 06:46:48;;;;;;;19.27;13.90;;;;;;;12.70;90.35;101609.13;5051166;28;20544;-61
2021/09/19 06:49:13;;;;;;;17.88;14.43;;;;;;;12.77;90.28;101618.59;5052009;28;20047;-76
2021/09/19 06:51:39;;;;;;;17.40;13.15;;;;;;;12.85;90.44;101631.56;5038608;28;20199;-62
2021/09/19 06:54:04;;;;;;;20.73;13.73;;;;;;;12.92;89.50;101630.38;5040474;28;20132;-80
2021/09/19 06:56:30;;;;;;;18.85;14.43;;;;;;;12.93;89.50;101630.31;5052212;28;20036;-77
2021/09/19 06:58:56;;;;;;;21.33;14.68;;;;;;;13.02;89.69;101622.84;5052689;28;20060;-63
2021/09/19 07:01:22;;;;;;;18.33;12.98;;;;;;;13.13;89.51;101638.38;5052600;28;20024;-70
2021/09/19 07:03:49;;;;;;;16.90;13.18;;;;;;;13.18;89.21;101631.91;5051806;28;20461;-75
2021/09/19 07:06:15;;;;;;;20.02;14.30;;;;;;;13.22;89.00;101628.22;5052419;28;20025;-62
2021/09/19 07:08:40;;;;;;;18.02;14.27;;;;;;;13.27;88.35;101638.63;5047751;28;20101;-80
2021/09/19 07:11:06;;;;;;;18.83;14.07;;;;;;;13.37;88.69;101639.13;5034604;28;20040;-74
2021/09/19 07:13:31;;;;;;;17.73;13.95;;;;;;;13.42;88.51;101635.34;5032798;28;20036;-69
2021/09/19 07:15:56;;;;;;;17.42;13.38;;;;;;;13.55;88.88;101637.47;5032370;28;20423;-79
2021/09/19 07:18:23;;;;;;;17.70;13.65;;;;;;;13.67;88.16;101644.03;5039478;28;20120;-69
2021/09/19 07:20:49;;;;;;;17.02;12.45;;;;;;;13.82;88.02;101642.47;5051210;28;20104;-77
2021/09/19 07:23:14;;;;;;;18.90;13.50;;;;;;;13.95;87.38;101638.28;5051632;28;20049;-68
2021/09/19 07:25:41;;;;;;;18.27;13.02;;;;;;;14.02;87.09;101637.09;5051908;28;20025;-73
2021/09/19 07:28:06;;;;;;;15.48;11.82;;;;;;;14.19;86.60;101638.94;5051065;28;20127;-79
2021/09/19 07:30:32;;;;;;;15.85;12.10;;;;;;;14.34;86.21;101633.84;5051383;28;20108;-64
2021/09/19 07:32:58;;;;;;;16.13;11.75;;;;;;;14.43;84.98;101634.25;5050755;28;20043;-73
2021/09/19 07:35:23;;;;;;;14.48;11.15;;;;;;;14.48;84.60;101633.19;5051379;28;20500;-80
2021/09/19 07:37:49;;;;;;;13.98;10.48;;;;;;;14.54;84.50;101630.19;5051378;28;20128;-77
2021/09/19 07:40:15;;;;;;;13.40;10.63;;;;;;;14.59;84.41;101631.72;5050882;28;20041;-78
2021/09/19 07:42:40;;;;;;;14.77;10.25;;;;;;;14.70;84.43;101635.69;5050722;28;20029;-82
2021/09/19 07:45:07;;;;;;;13.32;10.07;;;;;;;14.85;83.76;101636.72;5046161;28;20450;-69
2021/09/19 07:47:33;;;;;;;11.90;9.93;;;;;;;15.00;82.74;101635.94;5039671;28;20026;-62
2021/09/19 07:49:59;;;;;;;11.75;8.73;;;;;;;15.15;81.46;101631.63;5045677;28;20102;-64
2021/09/19 07:52:24;;;;;;;11.82;9.70;;;;;;;15.24;80.45;101635.63;5049488;28;20059;-74
2021/09/19 07:54:54;;;;;;;12.18;9.60;;;;;;;15.31;80.20;101639.72;5049465;28;20414;-71
2021/09/19 07:57:19;;;;;;;12.02;9.05;;;;;;;15.35;80.39;101640.41;5049465;28;20071;-72
2021/09/19 07:59:44;;;;;;;12.35;8.63;;;;;;;15.45;79.60;101638.97;5049790;28;20029;-74
2021/09/19 08:02:10;;;;;;;12.02;8.95;;;;;;;15.53;79.31;101634.09;5050143;28;20021;-76
2021/09/19 08:04:35;;;;;;;12.25;9.25;;;;;;;15.56;78.09;101633.94;5043334;28;20136;-70
2021/09/19 08:07:00;;;;;;;10.32;8.63;;;;;;;15.68;78.33;101639.56;5040973;28;20109;-62
2021/09/19 08:09:26;;;;;;;12.35;8.80;;;;;;;15.78;78.35;101637.25;5048443;28;20021;-63
2021/09/19 08:11:53;;;;;;;12.02;9.00;;;;;;;15.83;78.75;101641.44;5048623;28;20126;-65
2021/09/19 08:14:18;;;;;;;10.77;8.35;;;;;;;15.98;77.73;101628.19;5048054;28;20048;-80
2021/09/19 08:16:44;;;;;;;11.43;8.63;;;;;;;16.07;77.57;101637.50;5049140;28;20037;-62
2021/09/19 08:19:09;;;;;;;10.95;8.13;;;;;;;16.16;76.92;101640.53;5048522;28;20025;-72
2021/09/19 08:21:36;;;;;;;15.95;8.07;;;;;;;16.27;77.21;101636.41;5049116;28;20491;-76
2021/09/19 08:24:06;;;;;;;11.15;7.32;;;;;;;16.33;75.68;101633.38;5044490;28;20048;-70
2021/09/19 08:26:32;;;;;;;13.00;7.78;;;;;;;16.44;76.55;101638.97;5048446;28;20021;-65
2021/09/19 08:28:58;;;;;;;9.30;7.65;;;;;;;16.48;76.34;101634.31;5047833;28;20036;-60
2021/09/19 08:31:23;;;;;;;9.40;7.30;;;;;;;16.57;74.92;101632.94;5049207;28;20134;-65
2021/09/19 08:33:49;;;;;;;10.38;6.80;;;;;;;16.70;74.24;101634.81;5047519;28;20096;-63
2021/09/19 08:36:14;;;;;;;7.55;5.85;;;;;;;16.93;72.69;101637.13;5048227;28;20033;-68
2021/09/19 08:38:40;;;;;;;8.68;6.35;;;;;;;17.10;71.60;101642.34;5048243;28;20025;-64
2021/09/19 08:41:05;;;;;;;10.95;6.13;;;;;;;17.14;72.24;101643.88;5045357;28;20057;-61
2021/09/19 08:43:30;;;;;;;8.35;6.13;;;;;;;17.26;71.14;101644.09;5046491;28;20040;-60
2021/09/19 08:45:56;;;;;;;10.68;5.75;;;;;;;17.41;71.38;101642.31;5044378;28;20025;-61
2021/09/19 08:48:22;;;;;;;8.18;5.53;;;;;;;17.59;71.18;101643.84;5045436;28;20414;-69
2021/09/19 08:50:52;;;;;;;10.85;6.20;;;;;;;17.80;70.88;101640.78;5043233;28;20045;-65
2021/09/19 08:53:18;;;;;;;7.93;5.63;;;;;;;17.95;68.47;101642.50;5041117;28;20065;-64
2021/09/19 08:55:44;;;;;;;8.23;5.65;;;;;;;18.10;68.47;101643.38;5048136;28;20073;-61
2021/09/19 08:58:10;;;;;;;9.10;5.70;;;;;;;18.21;67.08;101645.38;5048416;28;20021;-67
2021/09/19 09:00:47;;;;;;;8.52;5.72;;;;;;;18.37;66.81;101639.03;5048902;28;20020;-63
2021/09/19 09:03:15;;;;;;;8.82;5.53;;;;;;;19.00;64.91;101650.94;5047985;28;20032;-65
2021/09/19 09:05:41;;;;;;;7.80;5.72;;;;;;;19.90;62.14;101651.03;5047715;28;20029;-70
2021/09/19 09:08:08;;;;;;;8.57;5.68;;;;;;;20.75;59.30;101650.22;5045553;28;20035;-63
2021/09/19 09:10:42;;;;;;;7.15;4.47;;;;;;;21.98;55.72;101644.38;5047957;28;20041;-59
2021/09/19 09:13:14;;;;;;;6.32;5.38;;;;;;;22.73;52.02;101642.75;5046897;28;20037;-71
2021/09/19 09:15:45;;;;;;;8.85;5.13;;;;;;;23.29;52.12;101657.00;5049457;28;20126;-75
2021/09/19 09:18:26;;;;;;;6.38;4.95;;;;;;;23.53;49.64;101654.00;5049051;28;20017;-65
2021/09/19 09:20:55;;;;;;;5.80;4.65;;;;;;;23.52;50.09;101646.03;5047704;28;20101;-72
2021/09/19 09:23:21;;;;;;;6.57;4.75;;;;;;;23.61;49.09;101653.34;5051430;28;20061;-76
2021/09/19 09:26:13;;;;;;;6.70;5.22;;;;;;;23.99;47.61;101654.53;5051492;28;20132;-80
2021/09/19 09:28:55;;;;;;;8.38;5.45;;;;;;;23.83;48.34;101657.69;5050903;28;20029;-75
2021/09/19 09:31:30;;;;;;;5.32;4.45;;;;;;;24.67;47.06;101648.44;5050726;28;20450;-68
2021/09/19 09:34:16;;;;;;;6.22;4.45;;;;;;;25.12;45.18;101656.97;5051376;28;20052;-67
2021/09/19 09:36:51;;;;;;;5.25;4.20;;;;;;;25.59;44.92;101658.88;5050915;28;20032;-81
2021/09/19 09:39:45;;;;;;;25.77;5.80;;;;;;;25.61;44.12;101667.72;5050813;28;20040;-79
2021/09/19 09:42:17;;;;;;;5.75;4.70;;;;;;;25.22;44.18;101663.22;5047480;28;20104;-67
2021/09/19 09:44:43;;;;;;;6.45;4.80;;;;;;;25.26;44.72;101666.50;5048459;28;20060;-67
2021/09/19 09:47:13;;;;;;;6.68;5.57;;;;;;;25.73;44.88;101671.09;5043114;28;20040;-72
2021/09/19 09:49:42;;;;;;;7.38;5.90;;;;;;;25.28;43.55;101673.50;5047738;28;20043;-75
2021/09/19 09:52:08;;;;;;;10.05;5.70;;;;;;;25.51;44.38;101668.63;5048823;28;20037;-74
2021/09/19 09:54:55;;;;;;;7.22;4.85;;;;;;;25.84;44.55;101669.09;5048517;28;20113;-67
2021/09/19 09:57:35;;;;;;;12.73;4.63;;;;;;;26.82;41.32;101663.09;5043717;28;20049;-72
2021/09/19 10:00:08;;;;;;;10.48;4.70;;;;;;;26.66;41.31;101668.34;5049445;28;20029;-58
2021/09/19 10:02:35;;;;;;;6.75;5.25;;;;;;;26.77;42.43;101672.72;5048379;28;20033;-67
2021/09/19 10:05:01;;;;;;;6.88;4.68;;;;;;;27.24;40.46;101677.88;5047962;28;20025;-59
2021/09/19 10:07:26;;;;;;;6.05;5.00;;;;;;;27.59;38.88;101676.09;5051486;28;20098;-75
2021/09/19 10:09:52;;;;;;;5.78;4.40;;;;;;;27.54;40.79;101674.88;5053210;28;20037;-71
2021/09/19 10:12:20;;;;;;;6.07;4.25;;;;;;;26.96;39.94;101672.56;5051804;28;20032;-73
2021/09/19 10:14:50;;;;;;;7.32;4.63;;;;;;;27.30;40.10;101666.38;5052931;28;20436;-67
2021/09/19 10:17:20;;;;;;;5.88;4.70;;;;;;;27.28;39.82;101662.09;5052967;28;20329;-73
2021/09/19 10:19:45;;;;;;;5.95;4.75;;;;;;;27.13;40.24;101667.25;5052931;28;20040;-67
2021/09/19 10:22:14;;;;;;;7.03;4.60;;;;;;;27.25;40.16;101665.13;5053289;28;20041;-76
2021/09/19 10:24:40;;;;;;;7.13;4.20;;;;;;;27.36;38.43;101667.59;5053358;28;20040;-68
2021/09/19 10:27:16;;;;;;;5.88;5.00;;;;;;;26.73;40.33;101649.59;5053473;28;20033;-68
2021/09/19 10:29:44;;;;;;;6.18;5.03;;;;;;;26.73;40.43;101660.47;5052275;28;20073;-64
2021/09/19 10:32:30;;;;;;;7.20;4.70;;;;;;;26.99;40.72;101647.75;5053022;28;20031;-77
2021/09/19 10:34:56;;;;;;;5.95;4.45;;;;;;;27.47;39.83;101651.03;5052623;28;20458;-79
2021/09/19 10:37:44;;;;;;;8.73;5.47;;;;;;;27.32;39.97;101649.88;5051966;28;20033;-69
2021/09/19 10:40:10;;;;;;;5.78;4.05;;;;;;;28.01;38.91;101646.38;5052719;28;20291;-67
2021/09/19 10:42:39;;;;;;;9.82;5.10;;;;;;;27.85;38.24;101645.25;5052050;28;20591;-72
2021/09/19 10:45:15;;;;;;;5.88;4.80;;;;;;;28.03;38.98;101644.34;5053525;28;20025;-74
2021/09/19 10:47:47;;;;;;;6.63;4.70;;;;;;;27.71;38.56;101635.00;5052436;28;20029;-71
2021/09/19 10:50:36;;;;;;;6.53;4.60;;;;;;;28.28;38.63;101639.84;5052005;28;20151;-69
2021/09/19 10:53:17;;;;;;;5.93;4.10;;;;;;;28.33;38.35;101633.91;5049794;28;20495;-67
2021/09/19 10:55:57;;;;;;;5.30;4.10;;;;;;;28.57;38.24;101639.38;5041735;28;20059;-59
2021/09/19 10:58:27;;;;;;;5.90;4.18;;;;;;;28.61;35.80;101646.19;5031525;28;20116;-60
2021/09/19 11:01:17;;;;;;;5.53;4.15;;;;;;;28.54;36.18;101636.16;5034803;28;20125;-63
2021/09/19 11:03:45;;;;;;;5.22;4.00;;;;;;;28.64;37.70;101636.00;5049614;28;20445;-61
2021/09/19 11:06:28;;;;;;;5.50;4.18;;;;;;;28.67;36.36;101643.84;5049944;28;20025;-60
2021/09/19 11:08:54;;;;;;;6.07;4.10;;;;;;;28.46;38.00;101647.88;5049553;28;20032;-61
2021/09/19 11:11:21;;;;;;;7.57;5.38;;;;;;;28.37;36.77;101644.28;5051490;28;20040;-63
2021/09/19 11:13:55;;;;;;;5.70;4.90;;;;;;;28.74;37.23;101650.34;5050980;28;20307;-68